createdAt,value
2017-09-01T00:00:06.209Z,7.90
2017-09-01T00:00:38.731Z,7.87
2017-09-01T00:01:11.280Z,8.50
2017-09-01T00:01:43.793Z,7.78
2017-09-01T00:02:16.336Z,8.93
2017-09-01T00:02:48.841Z,8.00
2017-09-01T00:03:21.350Z,8.20
2017-09-01T00:03:53.886Z,7.20
2017-09-01T00:04:26.407Z,7.40
2017-09-01T00:04:58.939Z,7.55
2017-09-01T00:05:31.450Z,8.23
2017-09-01T00:06:03.964Z,8.30
2017-09-01T00:06:36.472Z,8.20
2017-09-01T00:07:09.778Z,7.80
2017-09-01T00:07:42.301Z,7.30
2017-09-01T00:08:14.830Z,7.95
2017-09-01T00:08:47.383Z,8.35
2017-09-01T00:09:19.914Z,8.13
2017-09-01T00:09:53.227Z,7.68
2017-09-01T00:10:25.748Z,7.97
2017-09-01T00:10:58.275Z,7.87
2017-09-01T00:11:30.802Z,8.40
2017-09-01T00:12:03.319Z,7.45
2017-09-01T00:12:35.843Z,7.80
2017-09-01T00:13:08.346Z,8.02
2017-09-01T00:13:40.873Z,7.18
2017-09-01T00:14:13.390Z,7.65
2017-09-01T00:14:45.919Z,7.95
2017-09-01T00:15:18.447Z,7.55
2017-09-01T00:15:50.976Z,7.62
2017-09-01T00:16:23.501Z,6.82
2017-09-01T00:16:56.046Z,7.53
2017-09-01T00:17:28.573Z,6.95
2017-09-01T00:18:01.088Z,6.43
2017-09-01T00:18:33.609Z,7.22
2017-09-01T00:19:06.135Z,6.80
2017-09-01T00:19:38.669Z,6.57
2017-09-01T00:20:11.230Z,6.82
2017-09-01T00:20:43.745Z,7.12
2017-09-01T00:21:16.265Z,7.40
2017-09-01T00:21:48.805Z,6.80
2017-09-01T00:22:21.320Z,7.25
2017-09-01T00:22:53.859Z,7.10
2017-09-01T00:23:26.396Z,6.70
2017-09-01T00:23:58.929Z,7.10
2017-09-01T00:24:31.447Z,6.95
2017-09-01T00:25:03.974Z,6.22
2017-09-01T00:25:36.519Z,6.80
2017-09-01T00:26:09.052Z,6.87
2017-09-01T00:26:41.566Z,7.62
2017-09-01T00:27:14.077Z,6.80
2017-09-01T00:27:46.621Z,6.40
2017-09-01T00:28:19.163Z,6.85
2017-09-01T00:28:51.679Z,6.03
2017-09-01T00:29:24.207Z,7.22
2017-09-01T00:29:56.711Z,7.03
2017-09-01T00:30:29.220Z,7.00
2017-09-01T00:31:01.772Z,7.15
2017-09-01T00:31:34.288Z,6.30
2017-09-01T00:32:06.801Z,7.53
2017-09-01T00:32:39.311Z,6.70
2017-09-01T00:33:11.856Z,7.60
2017-09-01T00:33:44.369Z,7.32
2017-09-01T00:34:16.878Z,6.80
2017-09-01T00:34:49.404Z,7.43
2017-09-01T00:35:21.911Z,6.95
2017-09-01T00:35:54.423Z,6.50
2017-09-01T00:36:26.983Z,6.78
2017-09-01T00:36:59.491Z,7.05
2017-09-01T00:37:31.990Z,6.70
2017-09-01T00:38:04.507Z,6.55
2017-09-01T00:38:37.012Z,6.75
2017-09-01T00:39:09.531Z,6.60
2017-09-01T00:39:42.053Z,7.53
2017-09-01T00:40:14.591Z,7.00
2017-09-01T00:40:47.127Z,6.95
2017-09-01T00:41:19.660Z,6.95
2017-09-01T00:41:52.189Z,7.80
2017-09-01T00:42:24.702Z,6.97
2017-09-01T00:42:57.216Z,6.70
2017-09-01T00:43:29.731Z,6.60
2017-09-01T00:44:02.281Z,7.00
2017-09-01T00:44:34.806Z,6.85
2017-09-01T00:45:07.325Z,6.53
2017-09-01T00:45:39.851Z,6.55
2017-09-01T00:46:12.369Z,7.82
2017-09-01T00:46:44.907Z,7.60
2017-09-01T00:47:17.463Z,6.55
2017-09-01T00:47:49.975Z,7.65
2017-09-01T00:48:22.492Z,7.47
2017-09-01T00:48:55.015Z,6.78
2017-09-01T00:49:27.536Z,7.70
2017-09-01T00:50:00.081Z,7.80
2017-09-01T00:50:32.638Z,7.07
2017-09-01T00:51:05.152Z,7.20
2017-09-01T00:51:37.698Z,7.62
2017-09-01T00:52:10.228Z,7.65
2017-09-01T00:52:42.766Z,7.22
2017-09-01T00:53:15.306Z,7.15
2017-09-01T00:53:47.836Z,7.70
2017-09-01T00:54:20.369Z,7.25
2017-09-01T00:54:52.908Z,7.78
2017-09-01T00:55:25.429Z,6.87
2017-09-01T00:55:57.981Z,7.53
2017-09-01T00:56:30.530Z,7.03
2017-09-01T00:57:03.097Z,7.65
2017-09-01T00:57:35.621Z,7.60
2017-09-01T00:58:08.294Z,7.10
2017-09-01T00:58:40.816Z,7.57
2017-09-01T00:59:13.348Z,8.00
2017-09-01T00:59:45.881Z,7.82
2017-09-01T01:00:18.441Z,6.22
2017-09-01T01:00:50.981Z,7.45
2017-09-01T01:01:23.495Z,7.70
2017-09-01T01:01:56.028Z,7.30
2017-09-01T01:02:28.539Z,7.55
2017-09-01T01:03:01.056Z,6.87
2017-09-01T01:03:33.578Z,7.47
2017-09-01T01:04:06.105Z,7.35
2017-09-01T01:04:38.650Z,7.80
2017-09-01T01:05:11.179Z,6.80
2017-09-01T01:05:43.712Z,7.68
2017-09-01T01:06:25.487Z,7.62
2017-09-01T01:06:58.012Z,6.90
2017-09-01T01:07:30.551Z,7.45
2017-09-01T01:08:03.063Z,7.68
2017-09-01T01:08:35.591Z,7.37
2017-09-01T01:09:08.144Z,7.60
2017-09-01T01:09:40.688Z,6.80
2017-09-01T01:10:13.220Z,7.07
2017-09-01T01:10:45.739Z,7.70
2017-09-01T01:11:18.267Z,8.00
2017-09-01T01:11:50.789Z,7.47
2017-09-01T01:12:23.318Z,6.80
2017-09-01T01:12:55.828Z,7.07
2017-09-01T01:13:28.354Z,7.65
2017-09-01T01:14:00.876Z,6.87
2017-09-01T01:14:33.415Z,7.28
2017-09-01T01:15:05.947Z,7.03
2017-09-01T01:15:38.470Z,6.43
2017-09-01T01:16:11.002Z,7.00
2017-09-01T01:16:43.555Z,7.40
2017-09-01T01:17:16.208Z,8.35
2017-09-01T01:17:49.478Z,7.18
2017-09-01T01:18:22.752Z,6.85
2017-09-01T01:18:55.286Z,7.20
2017-09-01T01:19:27.819Z,7.03
2017-09-01T01:20:00.336Z,7.15
2017-09-01T01:20:32.860Z,8.27
2017-09-01T01:21:05.371Z,6.72
2017-09-01T01:21:37.894Z,6.68
2017-09-01T01:22:10.432Z,6.82
2017-09-01T01:22:42.958Z,7.60
2017-09-01T01:23:15.481Z,6.85
2017-09-01T01:23:48.016Z,6.65
2017-09-01T01:24:20.561Z,7.35
2017-09-01T01:24:53.091Z,7.20
2017-09-01T01:25:25.596Z,6.60
2017-09-01T01:25:58.120Z,6.82
2017-09-01T01:26:30.714Z,7.32
2017-09-01T01:27:03.324Z,7.30
2017-09-01T01:27:35.839Z,6.03
2017-09-01T01:28:08.362Z,7.07
2017-09-01T01:28:40.880Z,5.82
2017-09-01T01:29:13.394Z,6.20
2017-09-01T01:29:45.959Z,6.00
2017-09-01T01:30:18.499Z,6.32
2017-09-01T01:30:51.030Z,6.40
2017-09-01T01:31:23.557Z,6.50
2017-09-01T01:31:56.087Z,7.00
2017-09-01T01:32:28.621Z,6.72
2017-09-01T01:33:01.152Z,7.20
2017-09-01T01:33:33.696Z,6.82
2017-09-01T01:34:06.229Z,6.65
2017-09-01T01:34:39.513Z,6.28
2017-09-01T01:35:12.021Z,6.95
2017-09-01T01:35:44.562Z,6.70
2017-09-01T01:36:17.074Z,6.72
2017-09-01T01:36:49.594Z,6.25
2017-09-01T01:37:22.139Z,6.12
2017-09-01T01:37:54.661Z,7.30
2017-09-01T01:38:27.958Z,6.25
2017-09-01T01:39:00.490Z,7.00
2017-09-01T01:39:33.021Z,6.60
2017-09-01T01:40:05.535Z,6.50
2017-09-01T01:40:38.061Z,6.28
2017-09-01T01:41:10.594Z,5.93
2017-09-01T01:41:43.120Z,6.78
2017-09-01T01:42:15.641Z,6.32
2017-09-01T01:42:48.160Z,6.43
2017-09-01T01:43:20.675Z,6.70
2017-09-01T01:43:53.197Z,6.55
2017-09-01T01:44:25.696Z,5.82
2017-09-01T01:44:58.212Z,6.43
2017-09-01T01:45:30.722Z,6.90
2017-09-01T01:46:03.237Z,6.10
2017-09-01T01:46:35.784Z,6.70
2017-09-01T01:47:08.299Z,6.37
2017-09-01T01:47:40.841Z,5.97
2017-09-01T01:48:13.372Z,6.28
2017-09-01T01:48:45.875Z,6.72
2017-09-01T01:49:18.402Z,5.65
2017-09-01T01:49:50.921Z,5.75
2017-09-01T01:50:23.432Z,6.47
2017-09-01T01:50:55.956Z,6.03
2017-09-01T01:51:28.457Z,5.93
2017-09-01T01:52:01.018Z,5.97
2017-09-01T01:52:33.535Z,6.18
2017-09-01T01:53:06.053Z,6.40
2017-09-01T01:53:38.588Z,6.03
2017-09-01T01:54:11.106Z,6.43
2017-09-01T01:54:43.642Z,6.22
2017-09-01T01:55:16.164Z,7.18
2017-09-01T01:55:48.689Z,6.03
2017-09-01T01:56:21.220Z,6.05
2017-09-01T01:56:53.749Z,5.62
2017-09-01T01:57:26.280Z,5.97
2017-09-01T01:57:58.830Z,5.75
2017-09-01T01:58:31.351Z,6.43
2017-09-01T01:59:03.910Z,6.75
2017-09-01T01:59:36.460Z,6.30
2017-09-01T02:00:08.967Z,6.20
2017-09-01T02:00:41.501Z,6.35
2017-09-01T02:01:14.037Z,6.20
2017-09-01T02:01:46.603Z,6.20
2017-09-01T02:02:19.137Z,6.82
2017-09-01T02:02:51.675Z,6.65
2017-09-01T02:03:24.522Z,7.03
2017-09-01T02:03:57.061Z,6.07
2017-09-01T02:04:29.616Z,6.30
2017-09-01T02:05:02.153Z,6.25
2017-09-01T02:05:34.705Z,5.82
2017-09-01T02:06:07.266Z,6.57
2017-09-01T02:06:39.807Z,6.07
2017-09-01T02:07:12.341Z,6.97
2017-09-01T02:07:44.919Z,6.40
2017-09-01T02:08:17.490Z,6.20
2017-09-01T02:08:50.040Z,6.22
2017-09-01T02:09:22.573Z,6.40
2017-09-01T02:09:55.115Z,6.20
2017-09-01T02:10:27.646Z,5.72
2017-09-01T02:11:00.193Z,5.40
2017-09-01T02:11:32.716Z,5.80
2017-09-01T02:12:05.247Z,5.78
2017-09-01T02:12:37.760Z,5.87
2017-09-01T02:13:10.286Z,5.40
2017-09-01T02:13:42.832Z,5.97
2017-09-01T02:14:15.356Z,6.35
2017-09-01T02:14:47.875Z,7.00
2017-09-01T02:15:20.392Z,6.28
2017-09-01T02:15:52.889Z,5.80
2017-09-01T02:16:25.395Z,6.28
2017-09-01T02:16:57.963Z,7.10
2017-09-01T02:17:30.494Z,6.15
2017-09-01T02:18:03.027Z,6.05
2017-09-01T02:18:35.566Z,6.00
2017-09-01T02:19:08.107Z,5.35
2017-09-01T02:19:40.599Z,5.62
2017-09-01T02:20:13.146Z,6.35
2017-09-01T02:20:46.457Z,5.40
2017-09-01T02:21:19.010Z,6.07
2017-09-01T02:21:51.531Z,5.95
2017-09-01T02:22:24.056Z,5.97
2017-09-01T02:22:56.617Z,5.68
2017-09-01T02:23:29.135Z,6.12
2017-09-01T02:24:01.705Z,5.72
2017-09-01T02:24:34.295Z,5.53
2017-09-01T02:25:07.015Z,5.80
2017-09-01T02:25:39.561Z,5.70
2017-09-01T02:26:12.074Z,6.22
2017-09-01T02:26:44.623Z,5.72
2017-09-01T02:27:17.147Z,5.93
2017-09-01T02:27:49.678Z,5.75
2017-09-01T02:28:22.247Z,6.28
2017-09-01T02:28:54.824Z,5.45
2017-09-01T02:29:27.354Z,6.62
2017-09-01T02:29:59.876Z,5.53
2017-09-01T02:30:32.378Z,6.12
2017-09-01T02:31:04.891Z,6.20
2017-09-01T02:31:37.406Z,6.30
2017-09-01T02:32:09.926Z,6.55
2017-09-01T02:32:42.486Z,5.22
2017-09-01T02:33:15.007Z,5.95
2017-09-01T02:33:47.527Z,5.78
2017-09-01T02:34:20.046Z,5.55
2017-09-01T02:34:52.604Z,5.97
2017-09-01T02:35:25.144Z,5.10
2017-09-01T02:35:57.667Z,5.95
2017-09-01T02:36:30.185Z,5.40
2017-09-01T02:37:02.712Z,5.25
2017-09-01T02:37:35.225Z,5.65
2017-09-01T02:38:07.745Z,5.35
2017-09-01T02:38:40.267Z,4.75
2017-09-01T02:39:12.787Z,6.05
2017-09-01T02:39:45.315Z,5.53
2017-09-01T02:40:17.863Z,5.00
2017-09-01T02:40:50.404Z,5.82
2017-09-01T02:41:22.945Z,5.10
2017-09-01T02:41:55.503Z,5.60
2017-09-01T02:42:28.043Z,5.40
2017-09-01T02:43:00.579Z,5.57
2017-09-01T02:43:33.130Z,5.20
2017-09-01T02:44:05.645Z,5.18
2017-09-01T02:44:38.161Z,5.82
2017-09-01T02:45:10.692Z,5.32
2017-09-01T02:45:43.237Z,5.45
2017-09-01T02:46:15.773Z,5.55
2017-09-01T02:46:48.295Z,5.80
2017-09-01T02:47:20.811Z,5.30
2017-09-01T02:47:53.360Z,6.20
2017-09-01T02:48:25.871Z,5.18
2017-09-01T02:48:58.416Z,5.30
2017-09-01T02:49:30.972Z,5.60
2017-09-01T02:50:03.470Z,5.40
2017-09-01T02:50:36.002Z,4.90
2017-09-01T02:51:08.513Z,5.20
2017-09-01T02:51:41.085Z,4.32
2017-09-01T02:52:13.594Z,4.97
2017-09-01T02:52:46.119Z,4.85
2017-09-01T02:53:18.644Z,5.00
2017-09-01T02:53:51.189Z,4.95
2017-09-01T02:54:23.720Z,5.05
2017-09-01T02:54:56.255Z,5.40
2017-09-01T02:55:28.781Z,4.62
2017-09-01T02:56:01.292Z,4.87
2017-09-01T02:56:33.822Z,5.22
2017-09-01T02:57:06.350Z,4.80
2017-09-01T02:57:38.860Z,5.40
2017-09-01T02:58:11.372Z,4.10
2017-09-01T02:58:43.913Z,5.00
2017-09-01T02:59:16.425Z,4.60
2017-09-01T02:59:49.797Z,4.70
2017-09-01T03:00:22.305Z,5.68
2017-09-01T03:00:55.599Z,4.20
2017-09-01T03:01:28.135Z,4.80
2017-09-01T03:02:00.662Z,4.80
2017-09-01T03:02:33.215Z,4.32
2017-09-01T03:03:05.731Z,4.68
2017-09-01T03:03:38.248Z,4.57
2017-09-01T03:04:10.776Z,4.20
2017-09-01T03:04:43.320Z,4.53
2017-09-01T03:05:16.606Z,4.47
2017-09-01T03:05:49.111Z,5.80
2017-09-01T03:06:21.614Z,5.12
2017-09-01T03:06:54.157Z,4.37
2017-09-01T03:07:26.669Z,5.20
2017-09-01T03:07:59.207Z,4.60
2017-09-01T03:08:31.722Z,4.80
2017-09-01T03:09:04.292Z,4.45
2017-09-01T03:09:36.818Z,4.55
2017-09-01T03:10:09.329Z,4.87
2017-09-01T03:10:41.860Z,5.20
2017-09-01T03:11:14.375Z,4.93
2017-09-01T03:11:46.896Z,4.85
2017-09-01T03:12:19.431Z,4.75
2017-09-01T03:12:51.973Z,4.90
2017-09-01T03:13:24.540Z,5.12
2017-09-01T03:13:57.057Z,4.15
2017-09-01T03:14:29.576Z,4.35
2017-09-01T03:15:02.106Z,4.45
2017-09-01T03:15:34.633Z,4.97
2017-09-01T03:16:07.156Z,4.40
2017-09-01T03:16:39.676Z,3.97
2017-09-01T03:17:12.195Z,4.30
2017-09-01T03:17:44.706Z,4.50
2017-09-01T03:18:17.229Z,4.47
2017-09-01T03:18:49.774Z,4.43
2017-09-01T03:19:22.300Z,4.25
2017-09-01T03:19:54.820Z,4.28
2017-09-01T03:20:27.359Z,5.00
2017-09-01T03:20:59.879Z,4.35
2017-09-01T03:21:32.402Z,4.28
2017-09-01T03:22:04.913Z,4.25
2017-09-01T03:22:37.441Z,4.03
2017-09-01T03:23:09.973Z,4.85
2017-09-01T03:23:42.492Z,4.65
2017-09-01T03:24:15.128Z,4.50
2017-09-01T03:24:47.672Z,4.60
2017-09-01T03:25:20.267Z,5.00
2017-09-01T03:25:52.800Z,4.07
2017-09-01T03:26:25.331Z,3.97
2017-09-01T03:26:57.867Z,4.30
2017-09-01T03:27:30.371Z,4.70
2017-09-01T03:28:02.916Z,5.28
2017-09-01T03:28:35.441Z,4.55
2017-09-01T03:29:07.967Z,4.25
2017-09-01T03:29:40.528Z,4.57
2017-09-01T03:30:13.082Z,4.00
2017-09-01T03:30:45.626Z,3.97
2017-09-01T03:31:18.174Z,5.05
2017-09-01T03:31:50.685Z,5.50
2017-09-01T03:32:23.211Z,4.87
2017-09-01T03:32:55.730Z,4.80
2017-09-01T03:33:28.245Z,3.92
2017-09-01T03:34:00.765Z,4.57
2017-09-01T03:34:33.290Z,4.90
2017-09-01T03:35:05.822Z,4.50
2017-09-01T03:35:38.354Z,4.05
2017-09-01T03:36:10.880Z,4.00
2017-09-01T03:36:43.396Z,4.75
2017-09-01T03:37:15.897Z,4.20
2017-09-01T03:37:48.441Z,4.18
2017-09-01T03:38:20.967Z,4.00
2017-09-01T03:38:53.493Z,4.35
2017-09-01T03:39:26.026Z,4.60
2017-09-01T03:39:58.553Z,4.50
2017-09-01T03:40:31.130Z,4.40
2017-09-01T03:41:03.654Z,5.12
2017-09-01T03:41:36.195Z,4.65
2017-09-01T03:42:08.752Z,4.25
2017-09-01T03:42:41.665Z,4.30
2017-09-01T03:43:14.178Z,4.12
2017-09-01T03:43:46.697Z,4.35
2017-09-01T03:44:19.237Z,4.15
2017-09-01T03:44:51.751Z,4.55
2017-09-01T03:45:24.272Z,4.22
2017-09-01T03:45:56.821Z,4.25
2017-09-01T03:46:29.386Z,5.07
2017-09-01T03:47:01.916Z,5.75
2017-09-01T03:47:34.452Z,4.95
2017-09-01T03:48:06.967Z,5.57
2017-09-01T03:48:39.510Z,4.70
2017-09-01T03:49:12.068Z,4.70
2017-09-01T03:49:44.593Z,4.07
2017-09-01T03:50:17.127Z,4.15
2017-09-01T03:50:49.642Z,4.45
2017-09-01T03:51:22.186Z,4.12
2017-09-01T03:51:54.739Z,4.10
2017-09-01T03:52:27.300Z,4.00
2017-09-01T03:52:59.828Z,5.35
2017-09-01T03:53:32.334Z,4.50
2017-09-01T03:54:04.868Z,4.60
2017-09-01T03:54:37.421Z,4.57
2017-09-01T03:55:09.952Z,4.28
2017-09-01T03:55:42.488Z,5.12
2017-09-01T03:56:15.039Z,5.00
2017-09-01T03:56:47.612Z,3.95
2017-09-01T03:57:20.158Z,4.30
2017-09-01T03:57:52.678Z,4.15
2017-09-01T03:58:25.218Z,3.85
2017-09-01T03:58:57.767Z,3.92
2017-09-01T03:59:30.295Z,4.28
2017-09-01T04:00:02.801Z,3.80
2017-09-01T04:00:35.323Z,4.37
2017-09-01T04:01:07.839Z,4.75
2017-09-01T04:01:40.389Z,3.97
2017-09-01T04:02:12.934Z,4.43
2017-09-01T04:02:45.511Z,3.70
2017-09-01T04:03:18.034Z,3.80
2017-09-01T04:03:51.440Z,4.20
2017-09-01T04:04:23.989Z,4.50
2017-09-01T04:04:56.534Z,4.00
2017-09-01T04:05:29.053Z,4.10
2017-09-01T04:06:01.566Z,4.43
2017-09-01T04:06:34.069Z,4.30
2017-09-01T04:07:06.586Z,3.90
2017-09-01T04:07:39.129Z,4.43
2017-09-01T04:08:11.695Z,3.70
2017-09-01T04:08:44.208Z,4.07
2017-09-01T04:09:16.798Z,4.40
2017-09-01T04:09:49.320Z,4.32
2017-09-01T04:10:21.844Z,4.28
2017-09-01T04:10:54.373Z,4.12
2017-09-01T04:11:26.884Z,4.30
2017-09-01T04:11:59.419Z,4.03
2017-09-01T04:12:31.957Z,4.62
2017-09-01T04:13:04.475Z,4.15
2017-09-01T04:13:36.997Z,4.50
2017-09-01T04:14:09.696Z,3.80
2017-09-01T04:14:42.213Z,3.80
2017-09-01T04:15:14.725Z,4.65
2017-09-01T04:15:47.291Z,4.28
2017-09-01T04:16:19.821Z,4.15
2017-09-01T04:16:52.352Z,4.05
2017-09-01T04:17:24.884Z,4.37
2017-09-01T04:17:57.396Z,4.90
2017-09-01T04:18:29.922Z,3.95
2017-09-01T04:19:02.449Z,4.40
2017-09-01T04:19:34.983Z,4.55
2017-09-01T04:20:07.482Z,4.50
2017-09-01T04:20:39.990Z,4.45
2017-09-01T04:21:12.510Z,4.03
2017-09-01T04:21:45.039Z,4.00
2017-09-01T04:22:17.570Z,4.30
2017-09-01T04:22:50.213Z,4.40
2017-09-01T04:23:22.754Z,4.60
2017-09-01T04:23:55.308Z,3.70
2017-09-01T04:24:27.832Z,5.20
2017-09-01T04:25:00.353Z,3.87
2017-09-01T04:25:33.871Z,4.12
2017-09-01T04:26:06.407Z,4.30
2017-09-01T04:26:38.922Z,4.60
2017-09-01T04:27:11.443Z,3.87
2017-09-01T04:27:43.946Z,4.32
2017-09-01T04:28:16.482Z,3.65
2017-09-01T04:28:48.987Z,3.90
2017-09-01T04:29:21.558Z,3.83
2017-09-01T04:29:54.069Z,4.15
2017-09-01T04:30:26.642Z,4.50
2017-09-01T04:30:59.164Z,4.50
2017-09-01T04:31:31.686Z,4.72
2017-09-01T04:32:04.205Z,4.50
2017-09-01T04:32:36.766Z,4.18
2017-09-01T04:33:09.280Z,4.00
2017-09-01T04:33:41.808Z,4.20
2017-09-01T04:34:14.357Z,4.10
2017-09-01T04:34:46.899Z,4.40
2017-09-01T04:35:19.419Z,3.97
2017-09-01T04:35:51.927Z,4.10
2017-09-01T04:36:24.500Z,5.10
2017-09-01T04:36:57.026Z,4.05
2017-09-01T04:37:29.531Z,4.03
2017-09-01T04:38:02.067Z,3.70
2017-09-01T04:38:34.579Z,4.30
2017-09-01T04:39:07.099Z,4.70
2017-09-01T04:39:39.654Z,4.30
2017-09-01T04:40:12.191Z,4.10
2017-09-01T04:40:44.711Z,4.05
2017-09-01T04:41:17.259Z,4.37
2017-09-01T04:41:49.881Z,4.22
2017-09-01T04:42:22.411Z,4.00
2017-09-01T04:42:54.941Z,4.65
2017-09-01T04:43:27.472Z,4.10
2017-09-01T04:44:00.048Z,4.50
2017-09-01T04:44:32.563Z,4.28
2017-09-01T04:45:05.866Z,4.20
2017-09-01T04:45:38.413Z,4.10
2017-09-01T04:46:10.908Z,3.87
2017-09-01T04:46:43.439Z,3.92
2017-09-01T04:47:16.001Z,4.72
2017-09-01T04:47:48.530Z,4.00
2017-09-01T04:48:21.045Z,4.85
2017-09-01T04:48:53.563Z,4.55
2017-09-01T04:49:26.099Z,3.92
2017-09-01T04:49:58.629Z,4.12
2017-09-01T04:50:31.140Z,4.05
2017-09-01T04:51:03.673Z,4.37
2017-09-01T04:51:36.860Z,4.40
2017-09-01T04:52:09.516Z,3.87
2017-09-01T04:52:42.799Z,4.80
2017-09-01T04:53:15.314Z,4.35
2017-09-01T04:53:47.835Z,4.30
2017-09-01T04:54:20.382Z,4.40
2017-09-01T04:54:52.893Z,3.95
2017-09-01T04:55:25.404Z,5.50
2017-09-01T04:55:57.947Z,4.50
2017-09-01T04:56:30.843Z,4.50
2017-09-01T04:57:03.382Z,4.20
2017-09-01T04:57:35.898Z,5.15
2017-09-01T04:58:08.420Z,5.10
2017-09-01T04:58:40.919Z,4.90
2017-09-01T04:59:13.467Z,4.28
2017-09-01T04:59:46.005Z,4.20
2017-09-01T05:00:18.501Z,4.18
2017-09-01T05:00:51.055Z,5.03
2017-09-01T05:01:23.566Z,5.20
2017-09-01T05:01:56.141Z,4.47
2017-09-01T05:02:28.730Z,4.32
2017-09-01T05:03:01.258Z,4.20
2017-09-01T05:03:33.787Z,4.22
2017-09-01T05:04:06.320Z,4.50
2017-09-01T05:04:38.865Z,4.03
2017-09-01T05:05:11.414Z,4.75
2017-09-01T05:05:43.946Z,4.47
2017-09-01T05:06:16.458Z,4.20
2017-09-01T05:06:48.963Z,4.95
2017-09-01T05:07:21.524Z,4.60
2017-09-01T05:07:54.047Z,4.35
2017-09-01T05:08:26.610Z,3.67
2017-09-01T05:08:59.117Z,3.40
2017-09-01T05:09:31.919Z,4.75
2017-09-01T05:10:04.428Z,4.30
2017-09-01T05:10:36.938Z,4.62
2017-09-01T05:11:09.471Z,4.50
2017-09-01T05:11:42.009Z,4.32
2017-09-01T05:12:14.531Z,4.00
2017-09-01T05:12:47.071Z,4.10
2017-09-01T05:13:19.651Z,4.30
2017-09-01T05:13:52.165Z,5.00
2017-09-01T05:14:24.741Z,6.65
2017-09-01T05:14:57.286Z,4.97
2017-09-01T05:15:29.837Z,4.10
2017-09-01T05:16:02.341Z,5.00
2017-09-01T05:16:34.881Z,5.18
2017-09-01T05:17:07.474Z,4.47
2017-09-01T05:17:40.016Z,4.75
2017-09-01T05:18:12.536Z,3.90
2017-09-01T05:18:45.050Z,4.35
2017-09-01T05:19:17.568Z,4.70
2017-09-01T05:19:50.118Z,4.75
2017-09-01T05:20:22.637Z,4.20
2017-09-01T05:20:55.183Z,3.60
2017-09-01T05:21:27.710Z,4.37
2017-09-01T05:22:00.253Z,4.35
2017-09-01T05:22:32.762Z,4.78
2017-09-01T05:23:05.280Z,3.87
2017-09-01T05:23:37.826Z,4.30
2017-09-01T05:24:10.340Z,4.50
2017-09-01T05:24:42.933Z,4.37
2017-09-01T05:25:15.465Z,4.30
2017-09-01T05:25:47.978Z,4.40
2017-09-01T05:26:20.482Z,4.40
2017-09-01T05:26:53.007Z,4.05
2017-09-01T05:27:26.300Z,4.60
2017-09-01T05:27:58.824Z,4.22
2017-09-01T05:28:31.452Z,4.37
2017-09-01T05:29:04.009Z,4.47
2017-09-01T05:29:36.518Z,4.03
2017-09-01T05:30:09.047Z,3.70
2017-09-01T05:30:41.578Z,4.25
2017-09-01T05:31:14.097Z,4.30
2017-09-01T05:31:46.661Z,4.57
2017-09-01T05:32:19.213Z,4.10
2017-09-01T05:32:51.735Z,3.65
2017-09-01T05:33:24.249Z,4.22
2017-09-01T05:33:56.771Z,4.25
2017-09-01T05:34:29.316Z,4.60
2017-09-01T05:35:02.771Z,4.45
2017-09-01T05:35:35.993Z,4.62
2017-09-01T05:36:08.534Z,4.43
2017-09-01T05:36:41.050Z,4.60
2017-09-01T05:37:13.564Z,4.87
2017-09-01T05:37:46.185Z,3.78
2017-09-01T05:38:18.696Z,4.30
2017-09-01T05:38:51.208Z,4.80
2017-09-01T05:39:23.751Z,4.03
2017-09-01T05:39:56.306Z,4.80
2017-09-01T05:40:28.803Z,4.80
2017-09-01T05:41:01.366Z,5.43
2017-09-01T05:41:33.922Z,5.35
2017-09-01T05:42:06.423Z,4.75
2017-09-01T05:42:38.949Z,4.80
2017-09-01T05:43:11.473Z,4.40
2017-09-01T05:43:44.773Z,5.37
2017-09-01T05:44:17.295Z,4.45
2017-09-01T05:44:49.807Z,4.85
2017-09-01T05:45:22.367Z,4.72
2017-09-01T05:45:54.903Z,4.90
2017-09-01T05:46:27.412Z,5.00
2017-09-01T05:46:59.934Z,4.65
2017-09-01T05:47:32.475Z,4.30
2017-09-01T05:48:04.998Z,4.70
2017-09-01T05:48:37.519Z,4.35
2017-09-01T05:49:10.026Z,3.75
2017-09-01T05:49:42.553Z,4.25
2017-09-01T05:50:15.077Z,4.82
2017-09-01T05:50:47.611Z,4.43
2017-09-01T05:51:20.113Z,4.87
2017-09-01T05:51:52.625Z,4.20
2017-09-01T05:52:25.218Z,4.70
2017-09-01T05:52:57.859Z,4.60
2017-09-01T05:53:30.386Z,4.68
2017-09-01T05:54:02.895Z,4.95
2017-09-01T05:54:35.398Z,5.30
2017-09-01T05:55:07.925Z,5.18
2017-09-01T05:55:40.592Z,4.90
2017-09-01T05:56:13.118Z,5.47
2017-09-01T05:56:45.698Z,4.18
2017-09-01T05:57:19.030Z,4.40
2017-09-01T05:57:51.557Z,4.68
2017-09-01T05:58:24.095Z,4.40
2017-09-01T05:58:56.632Z,4.40
2017-09-01T05:59:29.993Z,4.43
2017-09-01T06:00:02.503Z,4.12
2017-09-01T06:00:35.131Z,4.43
2017-09-01T06:01:07.700Z,4.40
2017-09-01T06:01:40.228Z,4.70
2017-09-01T06:02:12.754Z,4.75
2017-09-01T06:02:45.270Z,4.70
2017-09-01T06:03:17.790Z,5.10
2017-09-01T06:03:50.366Z,5.50
2017-09-01T06:04:22.922Z,5.55
2017-09-01T06:04:55.426Z,4.55
2017-09-01T06:05:27.954Z,5.30
2017-09-01T06:06:00.581Z,4.35
2017-09-01T06:06:33.100Z,4.55
2017-09-01T06:07:05.666Z,4.90
2017-09-01T06:07:38.182Z,4.68
2017-09-01T06:08:10.708Z,4.05
2017-09-01T06:08:43.231Z,4.15
2017-09-01T06:09:15.766Z,4.05
2017-09-01T06:09:48.280Z,4.20
2017-09-01T06:10:20.801Z,4.45
2017-09-01T06:10:53.342Z,4.50
2017-09-01T06:11:25.894Z,4.30
2017-09-01T06:11:58.446Z,3.65
2017-09-01T06:12:30.994Z,3.65
2017-09-01T06:13:03.571Z,4.80
2017-09-01T06:13:36.662Z,5.10
2017-09-01T06:14:09.199Z,5.35
2017-09-01T06:14:41.718Z,4.55
2017-09-01T06:15:14.233Z,4.90
2017-09-01T06:15:46.759Z,4.00
2017-09-01T06:16:19.400Z,4.15
2017-09-01T06:16:51.960Z,5.00
2017-09-01T06:17:24.541Z,4.60
2017-09-01T06:17:57.084Z,5.00
2017-09-01T06:18:29.613Z,4.35
2017-09-01T06:19:02.138Z,4.22
2017-09-01T06:19:34.678Z,4.45
2017-09-01T06:20:07.205Z,4.10
2017-09-01T06:20:39.730Z,4.53
2017-09-01T06:21:12.346Z,4.28
2017-09-01T06:21:44.893Z,5.00
2017-09-01T06:22:17.448Z,4.78
2017-09-01T06:22:50.037Z,4.57
2017-09-01T06:23:22.593Z,4.40
2017-09-01T06:23:55.195Z,4.00
2017-09-01T06:24:27.706Z,4.30
2017-09-01T06:25:00.239Z,3.90
2017-09-01T06:25:32.759Z,4.78
2017-09-01T06:26:05.302Z,4.87
2017-09-01T06:26:37.818Z,4.07
2017-09-01T06:27:10.350Z,4.22
2017-09-01T06:27:42.879Z,4.68
2017-09-01T06:28:15.394Z,4.55
2017-09-01T06:28:47.932Z,4.00
2017-09-01T06:29:20.455Z,4.10
2017-09-01T06:29:52.980Z,4.53
2017-09-01T06:30:25.511Z,4.35
2017-09-01T06:30:58.021Z,4.15
2017-09-01T06:31:30.568Z,4.03
2017-09-01T06:32:03.094Z,4.12
2017-09-01T06:32:35.640Z,4.05
2017-09-01T06:33:08.153Z,3.75
2017-09-01T06:33:40.672Z,4.20
2017-09-01T06:34:13.200Z,4.62
2017-09-01T06:34:45.715Z,3.17
2017-09-01T06:35:18.221Z,4.85
2017-09-01T06:35:50.734Z,4.05
2017-09-01T06:36:23.247Z,4.35
2017-09-01T06:36:55.767Z,4.12
2017-09-01T06:37:28.308Z,4.35
2017-09-01T06:38:00.980Z,4.32
2017-09-01T06:38:33.508Z,4.20
2017-09-01T06:39:06.114Z,4.60
2017-09-01T06:39:38.641Z,4.55
2017-09-01T06:40:11.167Z,4.62
2017-09-01T06:40:44.443Z,4.00
2017-09-01T06:41:16.989Z,4.22
2017-09-01T06:41:49.552Z,4.40
2017-09-01T06:42:22.082Z,4.12
2017-09-01T06:42:54.623Z,4.82
2017-09-01T06:43:27.148Z,4.10
2017-09-01T06:43:59.667Z,4.53
2017-09-01T06:44:32.193Z,5.45
2017-09-01T06:45:04.752Z,4.45
2017-09-01T06:45:37.269Z,4.70
2017-09-01T06:46:09.796Z,5.50
2017-09-01T06:46:42.383Z,5.32
2017-09-01T06:47:14.942Z,4.90
2017-09-01T06:47:47.451Z,4.57
2017-09-01T06:48:20.147Z,5.90
2017-09-01T06:48:52.669Z,4.10
2017-09-01T06:49:25.176Z,4.45
2017-09-01T06:49:58.556Z,4.80
2017-09-01T06:50:31.087Z,4.50
2017-09-01T06:51:03.618Z,4.55
2017-09-01T06:51:36.573Z,4.65
2017-09-01T06:52:09.131Z,4.78
2017-09-01T06:52:41.640Z,5.05
2017-09-01T06:53:14.338Z,4.18
2017-09-01T06:53:46.871Z,4.65
2017-09-01T06:54:19.418Z,5.10
2017-09-01T06:54:51.999Z,4.07
2017-09-01T06:55:24.547Z,4.72
2017-09-01T06:55:57.093Z,4.80
2017-09-01T06:56:30.536Z,4.72
2017-09-01T06:57:03.073Z,4.82
2017-09-01T06:57:35.582Z,5.20
2017-09-01T06:58:08.116Z,4.65
2017-09-01T06:58:41.055Z,4.55
2017-09-01T06:59:13.574Z,4.40
2017-09-01T06:59:46.336Z,4.30
2017-09-01T07:00:18.923Z,4.20
2017-09-01T07:00:51.452Z,4.90
2017-09-01T07:01:24.029Z,4.28
2017-09-01T07:01:56.558Z,4.50
2017-09-01T07:02:29.118Z,4.00
2017-09-01T07:03:01.633Z,3.92
2017-09-01T07:03:34.146Z,4.75
2017-09-01T07:04:06.673Z,4.18
2017-09-01T07:04:39.237Z,4.10
2017-09-01T07:05:11.755Z,4.50
2017-09-01T07:05:44.301Z,4.68
2017-09-01T07:06:16.962Z,4.55
2017-09-01T07:06:49.478Z,4.50
2017-09-01T07:07:22.006Z,4.68
2017-09-01T07:07:54.877Z,3.80
2017-09-01T07:08:27.381Z,3.85
2017-09-01T07:08:59.915Z,3.90
2017-09-01T07:09:32.445Z,5.15
2017-09-01T07:10:04.966Z,4.93
2017-09-01T07:10:37.502Z,4.43
2017-09-01T07:11:10.032Z,4.57
2017-09-01T07:11:42.562Z,3.65
2017-09-01T07:12:15.121Z,4.93
2017-09-01T07:12:47.654Z,4.62
2017-09-01T07:13:20.765Z,4.15